1FD7 weather

Pga National Heliport
Palm Beach Gardens, Florida, United States

Public forecast

Using degrees Fahrenheit for public forecast. Weather courtesy of forecast.io.

Closest aviation weather report (METAR) to Pga National Heliport

Closest report is Palm Beach International Airport, 9.3 nm (17.3 km) SSE. Retrieved 2020/05/28 17:53 UTC (29 minutes ago):

KPBI 281753Z 11012KT 10SM SCT024 SCT035 SCT250 31/24 A3007 RMK AO2 SLP183 CB DSNT NW 60002 T03110239 10311 20272 58006

Closest aviation forecast (TAF) to Pga National Heliport

Closest forecast is Palm Beach International Airport, 9.3 nm (17.3 km) SSE. Retrieved 2020/05/28 18:34 UTC (0 seconds ago):

TAF KPBI 281729Z 2818/2918 14010KT P6SM SCT025 FM290100 11006KT P6SM SCT025 FM291400 12010KT P6SM SCT025